createdAt,value
2017-02-21T00:00:47.478Z,0
2017-02-21T00:02:00.610Z,0
2017-02-21T00:03:14.397Z,0
2017-02-21T00:04:28.141Z,0
2017-02-21T00:05:41.874Z,0
2017-02-21T00:06:54.970Z,0
2017-02-21T00:08:08.689Z,0
2017-02-21T00:09:22.395Z,0
2017-02-21T00:10:34.984Z,0
2017-02-21T00:11:48.714Z,0
2017-02-21T00:13:01.847Z,0
2017-02-21T00:14:15.550Z,0
2017-02-21T00:15:29.275Z,0
2017-02-21T00:16:42.987Z,0
2017-02-21T00:17:56.725Z,0
2017-02-21T00:19:10.457Z,0
2017-02-21T00:20:24.175Z,0
2017-02-21T00:21:37.866Z,0
2017-02-21T00:22:50.992Z,0
2017-02-21T00:24:04.750Z,0
2017-02-21T00:25:17.849Z,0
2017-02-21T00:26:31.551Z,0
2017-02-21T00:27:45.278Z,0
2017-02-21T00:28:59.049Z,0
2017-02-21T00:30:11.550Z,0
2017-02-21T00:31:25.230Z,0
2017-02-21T00:32:38.956Z,0
2017-02-21T00:33:52.657Z,0
2017-02-21T00:35:06.423Z,0
2017-02-21T00:36:20.105Z,0
2017-02-21T00:37:33.848Z,0
2017-02-21T00:38:47.565Z,0
2017-02-21T00:40:00.643Z,0
2017-02-21T00:41:14.334Z,0
2017-02-21T00:42:28.075Z,0
2017-02-21T00:43:41.801Z,0
2017-02-21T00:44:55.532Z,0
2017-02-21T00:46:09.263Z,0
2017-02-21T00:47:22.962Z,0
2017-02-21T00:48:36.658Z,0
2017-02-21T00:49:50.376Z,0
2017-02-21T00:51:04.087Z,0
2017-02-21T00:52:17.243Z,0
2017-02-21T00:53:30.982Z,0
2017-02-21T00:54:44.697Z,0
2017-02-21T00:55:58.433Z,0
2017-02-21T00:57:12.132Z,0
2017-02-21T00:58:25.811Z,0
2017-02-21T00:59:39.549Z,0
2017-02-21T01:00:53.279Z,0
2017-02-21T01:02:07.014Z,0
2017-02-21T01:03:19.528Z,0
2017-02-21T01:04:32.649Z,0
2017-02-21T01:05:46.365Z,0
2017-02-21T01:07:00.067Z,0
2017-02-21T01:08:13.759Z,0
2017-02-21T01:09:27.516Z,0
2017-02-21T01:10:40.656Z,0
2017-02-21T01:11:54.380Z,0
2017-02-21T01:13:08.125Z,0
2017-02-21T01:14:21.226Z,0
2017-02-21T01:15:34.922Z,0
2017-02-21T01:16:48.637Z,0
2017-02-21T01:18:01.787Z,0
2017-02-21T01:19:15.487Z,0
2017-02-21T01:20:29.192Z,0
2017-02-21T01:21:42.948Z,0
2017-02-21T01:22:56.660Z,0
2017-02-21T01:24:10.437Z,0
2017-02-21T01:25:24.190Z,0
2017-02-21T01:26:37.930Z,0
2017-02-21T01:27:51.048Z,0
2017-02-21T01:29:04.773Z,0
2017-02-21T01:30:18.489Z,0
2017-02-21T01:31:32.242Z,0
2017-02-21T01:32:45.962Z,0
2017-02-21T01:33:59.712Z,0
2017-02-21T01:35:13.444Z,0
2017-02-21T01:36:27.143Z,0
2017-02-21T01:37:40.257Z,0
2017-02-21T01:38:53.938Z,0
2017-02-21T01:40:07.627Z,0
2017-02-21T01:41:21.342Z,0
2017-02-21T01:42:34.452Z,0
2017-02-21T01:43:48.186Z,0
2017-02-21T01:45:01.985Z,0
2017-02-21T01:46:15.742Z,0
2017-02-21T01:47:29.452Z,0
2017-02-21T01:48:43.173Z,0
2017-02-21T01:49:56.940Z,0
2017-02-21T01:51:10.053Z,0
2017-02-21T01:52:23.228Z,0
2017-02-21T01:53:36.909Z,0
2017-02-21T01:54:50.023Z,0
2017-02-21T01:56:03.735Z,0
2017-02-21T01:57:17.467Z,0
2017-02-21T01:58:31.169Z,0
2017-02-21T01:59:44.883Z,0
2017-02-21T02:00:58.580Z,0
2017-02-21T02:02:11.097Z,0
2017-02-21T02:03:24.221Z,0
2017-02-21T02:04:37.317Z,0
2017-02-21T02:05:49.895Z,0
2017-02-21T02:07:03.655Z,0
2017-02-21T02:08:15.564Z,0
2017-02-21T02:09:29.324Z,0
2017-02-21T02:10:43.021Z,0
2017-02-21T02:11:56.761Z,0
2017-02-21T02:13:10.461Z,0
2017-02-21T02:14:24.174Z,0
2017-02-21T02:15:37.873Z,0
2017-02-21T02:16:51.610Z,0
2017-02-21T02:18:05.317Z,0
2017-02-21T02:19:19.054Z,0
2017-02-21T02:20:32.175Z,0
2017-02-21T02:21:45.884Z,0
2017-02-21T02:22:59.632Z,0
2017-02-21T02:24:13.330Z,0
2017-02-21T02:25:25.896Z,0
2017-02-21T02:26:39.604Z,0
2017-02-21T02:27:53.317Z,0
2017-02-21T02:29:07.046Z,0
2017-02-21T02:30:20.757Z,0
2017-02-21T02:31:34.507Z,0
2017-02-21T02:32:48.215Z,0
2017-02-21T02:34:01.928Z,0
2017-02-21T02:35:15.040Z,0
2017-02-21T02:36:28.145Z,0
2017-02-21T02:37:41.846Z,0
2017-02-21T02:38:54.946Z,0
2017-02-21T02:40:08.064Z,0
2017-02-21T02:41:21.794Z,0
2017-02-21T02:42:35.082Z,0
2017-02-21T02:43:48.862Z,0
2017-02-21T02:45:02.605Z,0
2017-02-21T02:46:15.762Z,0
2017-02-21T02:47:29.471Z,0
2017-02-21T02:48:43.176Z,0
2017-02-21T02:49:56.489Z,0
2017-02-21T02:51:10.230Z,0
2017-02-21T02:52:23.924Z,0
2017-02-21T02:53:37.619Z,0
2017-02-21T02:54:50.751Z,0
2017-02-21T02:56:04.421Z,0
2017-02-21T02:57:18.151Z,0
2017-02-21T02:58:31.937Z,0
2017-02-21T02:59:45.662Z,0
2017-02-21T03:00:58.772Z,0
2017-02-21T03:02:12.508Z,0
2017-02-21T03:03:26.223Z,0
2017-02-21T03:04:39.315Z,0
2017-02-21T03:05:53.015Z,0
2017-02-21T03:07:06.167Z,0
2017-02-21T03:08:19.297Z,0
2017-02-21T03:09:32.991Z,0
2017-02-21T03:10:46.733Z,0
2017-02-21T03:12:00.434Z,0
2017-02-21T03:13:14.141Z,0
2017-02-21T03:14:27.283Z,0
2017-02-21T03:15:41.012Z,0
2017-02-21T03:16:54.717Z,0
2017-02-21T03:18:08.422Z,0
2017-02-21T03:19:22.119Z,0
2017-02-21T03:20:35.797Z,0
2017-02-21T03:21:49.468Z,0
2017-02-21T03:23:03.177Z,0
2017-02-21T03:24:16.916Z,0
2017-02-21T03:25:30.603Z,0
2017-02-21T03:26:44.376Z,0
2017-02-21T03:27:58.065Z,0
2017-02-21T03:29:11.789Z,0
2017-02-21T03:30:25.544Z,0
2017-02-21T03:31:38.676Z,0
2017-02-21T03:32:52.390Z,0
2017-02-21T03:34:06.115Z,0
2017-02-21T03:35:19.816Z,0
2017-02-21T03:36:33.536Z,0
2017-02-21T03:37:47.318Z,0
2017-02-21T03:39:00.448Z,0
2017-02-21T03:40:13.559Z,0
2017-02-21T03:41:27.276Z,0
2017-02-21T03:42:40.377Z,0
2017-02-21T03:43:54.072Z,0
2017-02-21T03:45:07.780Z,0
2017-02-21T03:46:20.916Z,0
2017-02-21T03:47:34.680Z,0
2017-02-21T03:48:48.387Z,0
2017-02-21T03:50:01.538Z,0
2017-02-21T03:51:15.243Z,0
2017-02-21T03:52:28.934Z,0
2017-02-21T03:53:42.659Z,0
2017-02-21T03:54:56.368Z,0
2017-02-21T03:56:10.078Z,0
2017-02-21T03:57:23.216Z,0
2017-02-21T03:58:36.965Z,0
2017-02-21T03:59:49.506Z,0
2017-02-21T04:01:03.216Z,0
2017-02-21T04:02:16.936Z,0
2017-02-21T04:03:30.629Z,0
2017-02-21T04:04:43.735Z,0
2017-02-21T04:05:56.852Z,0
2017-02-21T04:07:10.604Z,0
2017-02-21T04:08:24.310Z,0
2017-02-21T04:09:38.049Z,0
2017-02-21T04:10:51.837Z,0
2017-02-21T04:12:05.583Z,0
2017-02-21T04:13:19.270Z,0
2017-02-21T04:14:32.950Z,0
2017-02-21T04:15:46.644Z,0
2017-02-21T04:17:00.400Z,0
2017-02-21T04:18:13.505Z,0
2017-02-21T04:19:26.662Z,0
2017-02-21T04:20:40.394Z,0
2017-02-21T04:21:54.090Z,0
2017-02-21T04:23:07.184Z,0
2017-02-21T04:24:20.887Z,0
2017-02-21T04:25:34.642Z,0
2017-02-21T04:26:48.370Z,0
2017-02-21T04:28:02.108Z,0
2017-02-21T04:29:15.837Z,0
2017-02-21T04:30:29.548Z,0
2017-02-21T04:31:43.225Z,0
2017-02-21T04:32:56.936Z,0
2017-02-21T04:34:10.643Z,0
2017-02-21T04:35:23.174Z,0
2017-02-21T04:36:36.897Z,0
2017-02-21T04:37:50.598Z,0
2017-02-21T04:39:04.318Z,0
2017-02-21T04:40:18.037Z,0
2017-02-21T04:41:31.761Z,0
2017-02-21T04:42:45.455Z,0
2017-02-21T04:43:59.136Z,0
2017-02-21T04:45:12.842Z,0
2017-02-21T04:46:25.973Z,0
2017-02-21T04:47:39.672Z,0
2017-02-21T04:48:53.386Z,0
2017-02-21T04:50:07.115Z,0
2017-02-21T04:51:20.851Z,0
2017-02-21T04:52:34.593Z,0
2017-02-21T04:53:47.157Z,0
2017-02-21T04:55:00.268Z,0
2017-02-21T04:56:13.408Z,0
2017-02-21T04:57:26.533Z,0
2017-02-21T04:58:40.296Z,0
2017-02-21T04:59:53.992Z,0
2017-02-21T05:01:07.726Z,0
2017-02-21T05:02:21.512Z,0
2017-02-21T05:03:35.284Z,0
2017-02-21T05:04:48.423Z,0
2017-02-21T05:06:02.136Z,0
2017-02-21T05:07:15.860Z,0
2017-02-21T05:08:29.556Z,0
2017-02-21T05:09:42.742Z,0
2017-02-21T05:10:55.887Z,0
2017-02-21T05:12:09.662Z,0
2017-02-21T05:13:23.354Z,0
2017-02-21T05:14:37.096Z,0
2017-02-21T05:15:50.270Z,0
2017-02-21T05:17:04.013Z,0
2017-02-21T05:18:17.134Z,0
2017-02-21T05:19:30.863Z,0
2017-02-21T05:20:44.027Z,0
2017-02-21T05:21:57.778Z,0
2017-02-21T05:23:11.460Z,0
2017-02-21T05:24:25.163Z,0
2017-02-21T05:25:38.857Z,0
2017-02-21T05:26:52.556Z,0
2017-02-21T05:28:06.274Z,0
2017-02-21T05:29:19.366Z,0
2017-02-21T05:30:33.072Z,0
2017-02-21T05:31:46.172Z,0
2017-02-21T05:32:59.865Z,0
2017-02-21T05:34:13.584Z,0
2017-02-21T05:35:27.289Z,0
2017-02-21T05:36:41.001Z,0
2017-02-21T05:37:54.737Z,0
2017-02-21T05:39:08.467Z,0
2017-02-21T05:40:22.213Z,0
2017-02-21T05:41:35.342Z,0
2017-02-21T05:42:49.096Z,0
2017-02-21T05:44:01.709Z,0
2017-02-21T05:45:15.431Z,0
2017-02-21T05:46:29.160Z,0
2017-02-21T05:47:42.897Z,0
2017-02-21T05:48:56.586Z,0
2017-02-21T05:50:09.841Z,0
2017-02-21T05:51:22.948Z,0
2017-02-21T05:52:36.644Z,0
2017-02-21T05:53:49.745Z,0
2017-02-21T05:55:03.462Z,0
2017-02-21T05:56:15.964Z,0
2017-02-21T05:57:29.696Z,0
2017-02-21T05:58:43.459Z,0
2017-02-21T05:59:56.593Z,0
2017-02-21T06:01:10.304Z,0
2017-02-21T06:02:24.041Z,0
2017-02-21T06:03:37.148Z,0
2017-02-21T06:04:50.256Z,0
2017-02-21T06:06:03.376Z,0
2017-02-21T06:07:17.085Z,0
2017-02-21T06:08:30.780Z,0
2017-02-21T06:09:43.894Z,0
2017-02-21T06:10:57.015Z,0
2017-02-21T06:12:10.768Z,0
2017-02-21T06:13:24.512Z,0
2017-02-21T06:14:38.255Z,0
2017-02-21T06:15:51.360Z,0
2017-02-21T06:17:05.083Z,0
2017-02-21T06:18:18.800Z,0
2017-02-21T06:19:32.532Z,0
2017-02-21T06:20:46.247Z,0
2017-02-21T06:21:59.987Z,0
2017-02-21T06:23:13.720Z,0
2017-02-21T06:24:27.458Z,0
2017-02-21T06:25:41.209Z,0
2017-02-21T06:26:53.757Z,0
2017-02-21T06:28:07.606Z,0
2017-02-21T06:29:21.310Z,0
2017-02-21T06:30:35.060Z,0
2017-02-21T06:31:48.820Z,0
2017-02-21T06:33:01.951Z,0
2017-02-21T06:34:15.655Z,0
2017-02-21T06:35:29.332Z,0
2017-02-21T06:36:42.470Z,0
2017-02-21T06:37:56.179Z,0
2017-02-21T06:39:09.535Z,0
2017-02-21T06:40:23.260Z,0
2017-02-21T06:41:36.960Z,0
2017-02-21T06:42:50.701Z,0
2017-02-21T06:44:04.389Z,0
2017-02-21T06:45:18.119Z,0
2017-02-21T06:46:31.883Z,0
2017-02-21T06:47:45.618Z,0
2017-02-21T06:48:58.714Z,0
2017-02-21T06:50:12.442Z,0
2017-02-21T06:51:26.142Z,0
2017-02-21T06:52:39.863Z,0
2017-02-21T06:53:53.591Z,0
2017-02-21T06:55:07.359Z,0
2017-02-21T06:56:21.084Z,0
2017-02-21T06:57:34.769Z,0
2017-02-21T06:58:48.457Z,0
2017-02-21T07:00:02.194Z,0
2017-02-21T07:01:15.292Z,0
2017-02-21T07:02:29.006Z,0
2017-02-21T07:03:42.097Z,0
2017-02-21T07:04:55.204Z,0
2017-02-21T07:06:08.951Z,0
2017-02-21T07:07:22.713Z,0
2017-02-21T07:08:36.450Z,0
2017-02-21T07:09:49.594Z,0
2017-02-21T07:11:03.289Z,0
2017-02-21T07:12:15.822Z,0
2017-02-21T07:13:29.584Z,0
2017-02-21T07:14:42.133Z,0
2017-02-21T07:15:55.874Z,0
2017-02-21T07:17:09.573Z,0
2017-02-21T07:18:22.699Z,0
2017-02-21T07:19:36.433Z,0
2017-02-21T07:20:50.142Z,0
2017-02-21T07:22:03.872Z,0
2017-02-21T07:23:16.975Z,0
2017-02-21T07:24:30.732Z,0
2017-02-21T07:25:44.529Z,0
2017-02-21T07:26:57.630Z,0
2017-02-21T07:28:10.720Z,0
2017-02-21T07:29:23.794Z,0
2017-02-21T07:30:37.568Z,0
2017-02-21T07:31:51.295Z,0
2017-02-21T07:33:05.045Z,0
2017-02-21T07:34:18.232Z,0
2017-02-21T07:35:31.935Z,0
2017-02-21T07:36:45.652Z,0
2017-02-21T07:37:58.781Z,0
2017-02-21T07:39:12.527Z,0
2017-02-21T07:40:26.237Z,0
2017-02-21T07:41:39.967Z,0
2017-02-21T07:42:53.687Z,0
2017-02-21T07:44:07.381Z,0
2017-02-21T07:45:21.079Z,0
2017-02-21T07:46:34.798Z,0
2017-02-21T07:47:48.548Z,0
2017-02-21T07:49:02.238Z,0
2017-02-21T07:50:15.967Z,0
2017-02-21T07:51:29.642Z,0
2017-02-21T07:52:43.358Z,0
2017-02-21T07:53:56.429Z,0
2017-02-21T07:55:10.131Z,0
2017-02-21T07:56:23.274Z,0
2017-02-21T07:57:37.030Z,0
2017-02-21T07:58:50.712Z,0
2017-02-21T08:00:04.381Z,0
2017-02-21T08:01:18.069Z,0
2017-02-21T08:02:31.796Z,0
2017-02-21T08:03:45.556Z,0
2017-02-21T08:04:59.240Z,0
2017-02-21T08:06:12.918Z,0
2017-02-21T08:07:26.580Z,0
2017-02-21T08:08:40.277Z,0
2017-02-21T08:09:54.039Z,0
2017-02-21T08:11:07.715Z,0
2017-02-21T08:12:20.840Z,0
2017-02-21T08:13:34.544Z,0
2017-02-21T08:14:47.621Z,0
2017-02-21T08:16:00.141Z,0
2017-02-21T08:17:13.901Z,0
2017-02-21T08:18:27.624Z,0
2017-02-21T08:19:41.334Z,0
2017-02-21T08:20:55.074Z,0
2017-02-21T08:22:08.795Z,0
2017-02-21T08:23:21.341Z,0
2017-02-21T08:24:35.060Z,0
2017-02-21T08:25:48.204Z,0
2017-02-21T08:27:01.327Z,0
2017-02-21T08:28:14.419Z,0
2017-02-21T08:29:28.150Z,0
2017-02-21T08:30:41.291Z,0
2017-02-21T08:31:54.404Z,0
2017-02-21T08:33:08.174Z,0
2017-02-21T08:34:21.889Z,0
2017-02-21T08:35:34.999Z,0
2017-02-21T08:36:48.721Z,0
2017-02-21T08:38:02.444Z,0
2017-02-21T08:39:14.968Z,0
2017-02-21T08:40:28.686Z,0
2017-02-21T08:41:42.404Z,0
2017-02-21T08:42:55.525Z,0
2017-02-21T08:44:09.268Z,0
2017-02-21T08:45:23.016Z,0
2017-02-21T08:46:36.094Z,0
2017-02-21T08:47:50.173Z,5
2017-02-21T08:49:03.292Z,5
2017-02-21T08:50:15.837Z,5
2017-02-21T08:51:29.523Z,10
2017-02-21T08:52:43.283Z,10
2017-02-21T08:53:56.978Z,15
2017-02-21T08:55:10.106Z,15
2017-02-21T08:56:23.233Z,20
2017-02-21T08:57:36.970Z,25
2017-02-21T08:58:49.451Z,25
2017-02-21T09:00:03.223Z,30
2017-02-21T09:01:15.727Z,35
2017-02-21T09:02:29.465Z,40
2017-02-21T09:03:43.157Z,45
2017-02-21T09:04:56.274Z,55
2017-02-21T09:06:10.040Z,65
2017-02-21T09:07:23.713Z,75
2017-02-21T09:08:37.420Z,85
2017-02-21T09:09:51.114Z,100
2017-02-21T09:11:04.842Z,110
2017-02-21T09:12:18.594Z,120
2017-02-21T09:13:31.697Z,130
2017-02-21T09:14:44.821Z,145
2017-02-21T09:15:58.533Z,155
2017-02-21T09:17:12.234Z,175
2017-02-21T09:18:25.944Z,190
2017-02-21T09:19:39.737Z,205
2017-02-21T09:20:52.853Z,220
2017-02-21T09:22:06.588Z,240
2017-02-21T09:23:20.275Z,250
2017-02-21T09:24:33.996Z,265
2017-02-21T09:25:47.152Z,280
2017-02-21T09:27:00.262Z,305
2017-02-21T09:28:14.005Z,325
2017-02-21T09:29:27.708Z,345
2017-02-21T09:30:40.819Z,365
2017-02-21T09:31:54.568Z,380
2017-02-21T09:33:07.645Z,400
2017-02-21T09:34:20.759Z,420
2017-02-21T09:35:34.464Z,455
2017-02-21T09:36:48.220Z,475
2017-02-21T09:38:01.969Z,495
2017-02-21T09:39:15.668Z,505
2017-02-21T09:40:29.371Z,525
2017-02-21T09:41:43.090Z,555
2017-02-21T09:42:56.197Z,585
2017-02-21T09:44:09.936Z,605
2017-02-21T09:45:23.639Z,630
2017-02-21T09:46:36.759Z,650
2017-02-21T09:47:49.863Z,680
2017-02-21T09:49:02.973Z,695
2017-02-21T09:50:16.699Z,710
2017-02-21T09:51:29.783Z,740
2017-02-21T09:52:42.344Z,770
2017-02-21T09:53:56.067Z,790
2017-02-21T09:55:09.770Z,810
2017-02-21T09:56:23.479Z,835
2017-02-21T09:57:37.190Z,880
2017-02-21T09:58:50.327Z,925
2017-02-21T10:00:04.037Z,935
2017-02-21T10:01:17.794Z,940
2017-02-21T10:02:31.463Z,950
2017-02-21T10:03:44.573Z,970
2017-02-21T10:04:58.315Z,975
2017-02-21T10:06:12.073Z,990
2017-02-21T10:07:25.798Z,1025
2017-02-21T10:08:38.919Z,1060
2017-02-21T10:09:52.615Z,1065
2017-02-21T10:11:05.733Z,1075
2017-02-21T10:12:19.456Z,1100
2017-02-21T10:13:32.618Z,1120
2017-02-21T10:14:45.764Z,1155
2017-02-21T10:15:59.506Z,1210
2017-02-21T10:17:13.207Z,1225
2017-02-21T10:18:26.372Z,1290
2017-02-21T10:19:40.095Z,1305
2017-02-21T10:20:53.802Z,1345
2017-02-21T10:22:06.957Z,1325
2017-02-21T10:23:19.450Z,1295
2017-02-21T10:24:33.169Z,1340
2017-02-21T10:25:46.862Z,1390
2017-02-21T10:26:59.968Z,1430
2017-02-21T10:28:13.067Z,1485
2017-02-21T10:29:26.226Z,1525
2017-02-21T10:30:39.965Z,1530
2017-02-21T10:31:53.100Z,1555
2017-02-21T10:33:06.807Z,1585
2017-02-21T10:34:19.362Z,1610
2017-02-21T10:35:33.081Z,1575
2017-02-21T10:36:46.270Z,1590
2017-02-21T10:38:00.007Z,1505
2017-02-21T10:39:13.145Z,1540
2017-02-21T10:40:26.870Z,1640
2017-02-21T10:41:40.601Z,1650
2017-02-21T10:42:54.329Z,1770
2017-02-21T10:44:07.526Z,1635
2017-02-21T10:45:21.283Z,1785
2017-02-21T10:46:35.037Z,1760
2017-02-21T10:47:48.174Z,1595
2017-02-21T10:49:01.317Z,1685
2017-02-21T10:50:15.051Z,1710
2017-02-21T10:51:28.838Z,1725
2017-02-21T10:52:42.579Z,1725
2017-02-21T10:53:55.710Z,1695
2017-02-21T10:55:08.839Z,1840
2017-02-21T10:56:22.603Z,1920
2017-02-21T10:57:35.745Z,2020
2017-02-21T10:58:49.500Z,2045
2017-02-21T11:00:02.625Z,2030
2017-02-21T11:01:15.196Z,2040
2017-02-21T11:02:28.919Z,1990
2017-02-21T11:03:42.656Z,1910
2017-02-21T11:04:55.210Z,1890
2017-02-21T11:06:08.925Z,1890
2017-02-21T11:07:22.605Z,1840
2017-02-21T11:08:35.706Z,1870
2017-02-21T11:09:49.427Z,1875
2017-02-21T11:11:03.152Z,1805
2017-02-21T11:12:16.885Z,1695
2017-02-21T11:13:30.656Z,1600
2017-02-21T11:14:44.414Z,1510
2017-02-21T11:15:58.246Z,1455
2017-02-21T11:17:11.373Z,1395
2017-02-21T11:18:24.529Z,1385
2017-02-21T11:19:37.630Z,1535
2017-02-21T11:20:50.186Z,1630
2017-02-21T11:22:03.904Z,1690
2017-02-21T11:23:17.094Z,1805
2017-02-21T11:24:30.814Z,1940
2017-02-21T11:25:44.573Z,2140
2017-02-21T11:26:57.711Z,2260
2017-02-21T11:28:11.453Z,2340
2017-02-21T11:29:24.586Z,2315
2017-02-21T11:30:38.328Z,2205
2017-02-21T11:31:52.068Z,2325
2017-02-21T11:33:05.827Z,2260
2017-02-21T11:34:18.976Z,2105
2017-02-21T11:35:32.766Z,2440
2017-02-21T11:36:46.464Z,2555
2017-02-21T11:38:00.195Z,2580
2017-02-21T11:39:13.914Z,2425
2017-02-21T11:40:27.646Z,2505
2017-02-21T11:41:41.418Z,2410
2017-02-21T11:42:55.167Z,2415
2017-02-21T11:44:08.884Z,2330
2017-02-21T11:45:22.664Z,2420
2017-02-21T11:46:36.419Z,2425
2017-02-21T11:47:50.154Z,2505
2017-02-21T11:49:03.938Z,2565
2017-02-21T12:21:21.437Z,2365
2017-02-21T12:22:35.167Z,2525
2017-02-21T12:23:48.886Z,2565
2017-02-21T12:25:02.029Z,2755
2017-02-21T12:26:15.204Z,2885
2017-02-21T12:27:28.933Z,2865
2017-02-21T12:28:42.060Z,2705
2017-02-21T12:29:55.807Z,2720
2017-02-21T12:31:09.524Z,2560
2017-02-21T12:32:23.232Z,2960
2017-02-21T12:33:36.336Z,2765
2017-02-21T12:34:50.068Z,2860
2017-02-21T12:36:03.863Z,2980
2017-02-21T12:37:17.016Z,3085
2017-02-21T12:38:30.165Z,2960
2017-02-21T12:39:43.911Z,2940
2017-02-21T12:40:57.651Z,2830
2017-02-21T12:42:11.378Z,2725
2017-02-21T12:43:25.116Z,2695
2017-02-21T12:44:38.850Z,2885
2017-02-21T12:45:52.631Z,3365
2017-02-21T12:47:05.861Z,3250
2017-02-21T12:48:19.637Z,3105
2017-02-21T12:49:32.772Z,3145
2017-02-21T12:50:46.546Z,3255
2017-02-21T12:51:59.663Z,3290
2017-02-21T12:53:13.393Z,3360
2017-02-21T12:54:26.565Z,3400
2017-02-21T12:55:40.294Z,3465
2017-02-21T12:56:53.459Z,3445
2017-02-21T12:58:06.616Z,3230
2017-02-21T12:59:19.802Z,3415
2017-02-21T13:00:32.389Z,3340
2017-02-21T13:01:46.173Z,3210
2017-02-21T13:02:59.333Z,3070
2017-02-21T13:04:13.058Z,3235
2017-02-21T13:05:26.255Z,3635
2017-02-21T13:06:40.022Z,3450
2017-02-21T13:07:53.168Z,3610
2017-02-21T13:09:06.893Z,3495
2017-02-21T13:10:20.632Z,3485
2017-02-21T13:11:32.601Z,3270
2017-02-21T13:12:46.329Z,3210
2017-02-21T13:13:59.461Z,3460
2017-02-21T13:15:12.565Z,3805
2017-02-21T13:16:26.324Z,3620
2017-02-21T13:17:40.062Z,3460
2017-02-21T13:18:53.182Z,3760
2017-02-21T13:20:06.304Z,3660
2017-02-21T13:21:19.422Z,3285
2017-02-21T13:22:33.179Z,3740
2017-02-21T13:23:46.895Z,3735
2017-02-21T13:25:00.043Z,3605
2017-02-21T13:26:13.221Z,3465
2017-02-21T13:27:26.392Z,3125
2017-02-21T13:28:40.133Z,3625
2017-02-21T13:29:53.499Z,3655
2017-02-21T13:31:07.300Z,3595
2017-02-21T13:32:19.824Z,3705
2017-02-21T13:33:33.588Z,3720
2017-02-21T13:34:46.743Z,3685
2017-02-21T13:36:00.499Z,3780
2017-02-21T13:37:13.089Z,3610
2017-02-21T13:38:26.840Z,3880
2017-02-21T13:39:40.595Z,3670
2017-02-21T13:40:54.316Z,3540
2017-02-21T13:42:07.404Z,3570
2017-02-21T13:43:21.099Z,3450
2017-02-21T13:44:34.207Z,3445
2017-02-21T13:45:47.933Z,3920
2017-02-21T13:47:01.073Z,3860
2017-02-21T13:48:13.590Z,4075
2017-02-21T13:49:27.330Z,4010
2017-02-21T13:50:40.467Z,4085
2017-02-21T13:51:54.150Z,4005
2017-02-21T13:53:07.883Z,3890
2017-02-21T13:54:21.044Z,3945
2017-02-21T13:55:34.762Z,2885
2017-02-21T13:56:48.506Z,3360
2017-02-21T13:57:59.835Z,4250
2017-02-21T13:59:13.583Z,4220
2017-02-21T14:00:27.376Z,4280
2017-02-21T14:01:41.111Z,4055
2017-02-21T14:04:06.330Z,3785
2017-02-21T14:05:18.301Z,3945
2017-02-21T14:06:32.059Z,4165
2017-02-21T14:07:45.792Z,4310
2017-02-21T14:08:59.557Z,4320
2017-02-21T14:10:13.345Z,4375
2017-02-21T14:11:26.496Z,4120
2017-02-21T14:12:39.606Z,4360
2017-02-21T14:13:53.361Z,4315
2017-02-21T14:15:07.105Z,4165
2017-02-21T14:16:20.925Z,4115
2017-02-21T14:17:34.667Z,4270
2017-02-21T14:18:48.416Z,4390
2017-02-21T14:20:01.587Z,4165
2017-02-21T14:21:15.332Z,4510
2017-02-21T14:22:29.117Z,4110
2017-02-21T14:23:42.834Z,3620
2017-02-21T14:24:56.602Z,4040
2017-02-21T14:26:10.332Z,3870
2017-02-21T14:27:24.062Z,1600
2017-02-21T14:28:37.828Z,2985
2017-02-21T14:29:50.976Z,2045
2017-02-21T14:31:03.535Z,4500
2017-02-21T14:32:16.076Z,4695
2017-02-21T14:33:29.791Z,4330
2017-02-21T14:34:43.512Z,4390
2017-02-21T14:35:57.253Z,4360
2017-02-21T14:37:10.981Z,1695
2017-02-21T14:38:24.734Z,1910
2017-02-21T14:40:47.375Z,4270
2017-02-21T14:42:01.083Z,4340
2017-02-21T14:43:17.550Z,4235
2017-02-21T14:44:31.913Z,4110
2017-02-21T14:45:46.335Z,4170
2017-02-21T14:47:00.771Z,1590
2017-02-21T14:48:14.530Z,1470
2017-02-21T14:49:28.915Z,1515
2017-02-21T14:50:43.377Z,1535
2017-02-21T14:51:57.938Z,1485
2017-02-21T14:53:12.314Z,1440
2017-02-21T14:54:26.149Z,1405
2017-02-21T14:55:40.524Z,1480
2017-02-21T14:56:54.289Z,1745
2017-02-21T14:58:08.064Z,4455
2017-02-21T14:59:22.480Z,4460
2017-02-21T15:00:36.889Z,4690
2017-02-21T15:01:51.301Z,4625
2017-02-21T15:03:05.686Z,4540
2017-02-21T15:04:20.121Z,4480
2017-02-21T15:05:34.519Z,4200
2017-02-21T15:06:48.936Z,4010
2017-02-21T15:08:03.338Z,4130
2017-02-21T15:09:17.788Z,4340
2017-02-21T15:10:31.592Z,1590
2017-02-21T15:11:46.040Z,2735
2017-02-21T15:12:59.824Z,3690
2017-02-21T15:14:13.558Z,2335
2017-02-21T15:15:27.309Z,1640
2017-02-21T15:16:41.715Z,1620
2017-02-21T15:17:56.151Z,1965
2017-02-21T15:19:10.570Z,4295
2017-02-21T15:20:24.361Z,4460
2017-02-21T15:21:38.763Z,4185
2017-02-21T15:22:53.195Z,3985
2017-02-21T15:24:07.637Z,3650
2017-02-21T15:25:22.031Z,4250
2017-02-21T15:26:35.837Z,4605
2017-02-21T15:27:50.292Z,4455
2017-02-21T15:29:04.727Z,4260
2017-02-21T15:30:18.475Z,4205
2017-02-21T15:31:32.893Z,3970
2017-02-21T15:32:46.670Z,4030
2017-02-21T15:34:01.021Z,4155
2017-02-21T15:35:15.475Z,4185
2017-02-21T15:36:29.909Z,1755
2017-02-21T15:37:44.330Z,3400
2017-02-21T15:38:58.144Z,4015
2017-02-21T15:40:12.575Z,4115
2017-02-21T15:41:26.698Z,4010
2017-02-21T15:42:41.176Z,4230
2017-02-21T15:43:55.598Z,4310
2017-02-21T15:45:09.356Z,4250
2017-02-21T15:46:23.138Z,4255
2017-02-21T15:47:37.555Z,4340
2017-02-21T15:48:51.966Z,4360
2017-02-21T15:50:05.096Z,4415
2017-02-21T15:51:18.869Z,4455
2017-02-21T15:52:33.299Z,4290
2017-02-21T15:53:47.716Z,4240
2017-02-21T15:55:02.138Z,4030
2017-02-21T15:56:15.877Z,4305
2017-02-21T15:57:29.641Z,3695
2017-02-21T15:58:44.039Z,4000
2017-02-21T15:59:58.472Z,4265
2017-02-21T16:01:12.885Z,4240
2017-02-21T16:02:27.274Z,4240
2017-02-21T16:03:41.691Z,4090
2017-02-21T16:04:56.096Z,4225
2017-02-21T16:06:10.483Z,4275
2017-02-21T16:07:24.274Z,4130
2017-02-21T16:08:38.746Z,4015
2017-02-21T16:09:53.135Z,4150
2017-02-21T16:11:07.574Z,1515
2017-02-21T16:12:21.376Z,1510
2017-02-21T16:13:35.811Z,2465
2017-02-21T16:15:21.148Z,2050
2017-02-21T16:16:34.939Z,3525
2017-02-21T16:17:49.363Z,2695
2017-02-21T16:19:03.861Z,3205
2017-02-21T16:20:18.251Z,3970
2017-02-21T16:21:32.661Z,2670
2017-02-21T16:22:47.073Z,2190
2017-02-21T16:24:00.225Z,1400
2017-02-21T16:25:14.648Z,1585
2017-02-21T16:26:28.398Z,1475
2017-02-21T16:27:42.767Z,1615
2017-02-21T16:28:56.580Z,4045
2017-02-21T16:30:10.363Z,3885
2017-02-21T16:31:24.753Z,4040
2017-02-21T16:32:38.540Z,3730
2017-02-21T16:33:52.956Z,2490
2017-02-21T16:35:07.368Z,1170
2017-02-21T16:36:21.781Z,1185
2017-02-21T16:37:36.216Z,1275
2017-02-21T16:38:50.049Z,1375
2017-02-21T16:40:04.464Z,1415
2017-02-21T16:41:18.887Z,1500
2017-02-21T16:42:33.284Z,3920
2017-02-21T16:43:47.685Z,3850
2017-02-21T16:45:00.817Z,4115
2017-02-21T16:46:13.346Z,4010
2017-02-21T16:47:27.760Z,3795
2017-02-21T16:48:42.207Z,4285
2017-02-21T16:49:56.609Z,4265
2017-02-21T16:51:10.399Z,4205
2017-02-21T16:52:24.835Z,3965
2017-02-21T16:53:39.281Z,4010
2017-02-21T16:54:53.691Z,4035
2017-02-21T16:56:07.483Z,3780
2017-02-21T16:57:21.894Z,1575
2017-02-21T16:58:55.525Z,3570
2017-02-21T17:00:09.325Z,3890
2017-02-21T17:01:23.758Z,3780
2017-02-21T17:02:38.157Z,3780
2017-02-21T17:03:52.594Z,3870
2017-02-21T17:05:07.049Z,3485
2017-02-21T17:06:20.813Z,3605
2017-02-21T17:07:35.223Z,3520
2017-02-21T17:08:49.632Z,3845
2017-02-21T17:10:04.096Z,3770
2017-02-21T17:11:17.876Z,3800
2017-02-21T17:13:59.826Z,3840
2017-02-21T17:15:27.010Z,3325
2017-02-21T17:16:41.432Z,3280
2017-02-21T17:17:55.849Z,2820
2017-02-21T17:19:08.953Z,1495
2017-02-21T17:20:23.398Z,1365
2017-02-21T17:21:37.822Z,1305
2017-02-21T17:22:52.196Z,1255
2017-02-21T17:24:06.587Z,1265
2017-02-21T17:25:20.381Z,1250
2017-02-21T17:26:34.795Z,1220
2017-02-21T17:27:49.200Z,1255
2017-02-21T17:29:03.008Z,1365
2017-02-21T17:30:17.410Z,2795
2017-02-21T17:31:31.227Z,3140
2017-02-21T17:32:45.649Z,3010
2017-02-21T17:34:00.047Z,1605
2017-02-21T17:35:13.808Z,1540
2017-02-21T17:36:27.620Z,1575
2017-02-21T17:37:42.051Z,1540
2017-02-21T17:38:55.839Z,1490
2017-02-21T17:40:09.041Z,2095
2017-02-21T17:41:23.456Z,1885
2017-02-21T17:42:37.831Z,1700
2017-02-21T17:43:52.282Z,1550
2017-02-21T17:45:06.073Z,1720
2017-02-21T17:46:19.228Z,1780
2017-02-21T17:47:33.615Z,1820
2017-02-21T17:48:48.035Z,2025
2017-02-21T17:50:02.481Z,2240
2017-02-21T17:51:16.219Z,2305
2017-02-21T17:52:29.998Z,2325